createdAt,value
2023-01-09T00:01:41.938Z,63.52
2023-01-09T00:04:09.552Z,62.25
2023-01-09T00:06:37.403Z,60.81
2023-01-09T00:09:04.727Z,57.20
2023-01-09T00:11:31.687Z,54.31
2023-01-09T00:13:59.406Z,54.75
2023-01-09T00:16:26.650Z,55.92
2023-01-09T00:18:54.209Z,56.87
2023-01-09T00:21:21.205Z,57.72
2023-01-09T00:23:48.163Z,58.65
2023-01-09T00:26:18.161Z,59.67
2023-01-09T00:28:46.965Z,60.93
2023-01-09T00:31:14.603Z,66.31
2023-01-09T00:34:03.234Z,72.73
2023-01-09T00:36:30.205Z,72.42
2023-01-09T00:38:57.847Z,69.98
2023-01-09T00:41:31.795Z,67.74
2023-01-09T00:44:04.913Z,65.56
2023-01-09T00:46:35.871Z,63.67
2023-01-09T00:49:05.684Z,62.51
2023-01-09T00:51:32.647Z,61.55
2023-01-09T00:54:00.083Z,60.18
2023-01-09T00:56:27.050Z,57.16
2023-01-09T00:58:54.925Z,54.87
2023-01-09T01:01:22.333Z,55.22
2023-01-09T01:03:49.278Z,56.24
2023-01-09T01:06:34.965Z,57.79
2023-01-09T01:09:01.905Z,58.21
2023-01-09T01:11:29.073Z,59.67
2023-01-09T01:13:56.522Z,61.35
2023-01-09T01:16:23.498Z,66.78
2023-01-09T01:18:51.045Z,73.61
2023-01-09T01:21:18.483Z,72.76
2023-01-09T01:23:45.643Z,70.24
2023-01-09T01:26:15.439Z,68.18
2023-01-09T01:28:43.603Z,66.07
2023-01-09T01:31:17.982Z,64.32
2023-01-09T01:33:45.175Z,63.40
2023-01-09T01:36:12.446Z,62.30
2023-01-09T01:38:39.682Z,62.12
2023-01-09T01:41:07.646Z,61.71
2023-01-09T01:43:52.682Z,61.19
2023-01-09T01:46:19.589Z,60.59
2023-01-09T01:48:48.762Z,60.09
2023-01-09T01:51:18.627Z,60.12
2023-01-09T01:53:51.957Z,60.08
2023-01-09T01:56:25.682Z,57.30
2023-01-09T01:59:08.483Z,54.43
2023-01-09T02:01:41.236Z,55.12
2023-01-09T02:04:09.004Z,57.36
2023-01-09T02:06:37.838Z,59.12
2023-01-09T02:09:06.585Z,60.11
2023-01-09T02:11:34.641Z,60.87
2023-01-09T02:14:02.917Z,65.24
2023-01-09T02:16:48.274Z,71.68
2023-01-09T02:19:24.450Z,71.99
2023-01-09T02:21:51.282Z,69.94
2023-01-09T02:24:57.044Z,67.69
2023-01-09T02:27:37.281Z,65.28
2023-01-09T02:30:16.243Z,63.99
2023-01-09T02:32:59.016Z,63.21
2023-01-09T02:35:34.971Z,62.89
2023-01-09T02:38:15.949Z,62.70
2023-01-09T02:40:53.968Z,61.86
2023-01-09T02:43:21.506Z,60.90
2023-01-09T02:45:48.745Z,60.85
2023-01-09T02:48:15.946Z,61.11
2023-01-09T02:51:01.721Z,60.82
2023-01-09T02:53:45.444Z,60.68
2023-01-09T02:56:41.859Z,60.46
2023-01-09T02:59:28.684Z,60.35
2023-01-09T03:02:07.877Z,60.39
2023-01-09T03:04:48.148Z,60.11
2023-01-09T03:07:31.575Z,59.93
2023-01-09T03:10:09.403Z,59.79
2023-01-09T03:12:38.531Z,56.73
2023-01-09T03:15:10.928Z,54.52
2023-01-09T03:17:43.734Z,55.33
2023-01-09T03:20:21.453Z,56.69
2023-01-09T03:22:56.633Z,57.90
2023-01-09T03:25:28.412Z,59.08
2023-01-09T03:28:10.324Z,60.16
2023-01-09T03:30:44.375Z,63.96
2023-01-09T03:33:17.298Z,69.83
2023-01-09T03:35:51.175Z,69.96
2023-01-09T03:38:18.069Z,67.80
2023-01-09T03:40:45.071Z,66.77
2023-01-09T03:43:12.381Z,65.30
2023-01-09T03:45:39.330Z,64.80
2023-01-09T03:48:06.879Z,63.96
2023-01-09T03:50:33.900Z,63.18
2023-01-09T03:53:00.860Z,62.49
2023-01-09T03:55:27.863Z,61.81
2023-01-09T03:57:54.941Z,60.84
2023-01-09T04:00:22.886Z,60.55
2023-01-09T04:02:49.920Z,60.44
2023-01-09T04:05:17.171Z,60.71
2023-01-09T04:07:44.114Z,60.84
2023-01-09T04:10:11.429Z,60.83
2023-01-09T04:12:38.945Z,61.38
2023-01-09T04:15:06.685Z,61.30
2023-01-09T04:17:33.725Z,60.88
2023-01-09T04:20:00.777Z,60.38
2023-01-09T04:22:27.823Z,59.38
2023-01-09T04:24:57.247Z,55.84
2023-01-09T04:27:27.969Z,55.44
2023-01-09T04:29:54.908Z,55.84
2023-01-09T04:32:22.183Z,56.98
2023-01-09T04:34:49.429Z,59.70
2023-01-09T04:37:16.462Z,60.46
2023-01-09T04:39:46.557Z,64.33
2023-01-09T04:42:13.503Z,70.02
2023-01-09T04:44:40.680Z,69.84
2023-01-09T04:47:07.589Z,68.31
2023-01-09T04:49:34.428Z,66.83
2023-01-09T04:52:01.376Z,65.70
2023-01-09T04:54:28.215Z,63.73
2023-01-09T04:56:55.274Z,62.82
2023-01-09T04:59:22.302Z,62.09
2023-01-09T05:01:49.388Z,61.34
2023-01-09T05:04:16.523Z,60.97
2023-01-09T05:06:43.544Z,60.81
2023-01-09T05:09:10.512Z,60.15
2023-01-09T05:11:37.444Z,57.40
2023-01-09T05:14:04.384Z,54.88
2023-01-09T05:16:32.477Z,56.40
2023-01-09T05:19:00.822Z,58.39
2023-01-09T05:21:28.171Z,60.35
2023-01-09T05:23:55.003Z,61.61
2023-01-09T05:26:26.313Z,66.29
2023-01-09T05:28:56.782Z,70.28
2023-01-09T05:31:25.897Z,68.28
2023-01-09T05:33:53.746Z,65.85
2023-01-09T05:36:20.596Z,64.21
2023-01-09T05:38:47.625Z,63.18
2023-01-09T05:41:14.460Z,62.61
2023-01-09T05:43:41.605Z,61.79
2023-01-09T05:46:08.696Z,61.00
2023-01-09T05:48:35.624Z,60.57
2023-01-09T05:51:02.662Z,57.65
2023-01-09T05:53:29.483Z,54.68
2023-01-09T05:55:56.319Z,55.16
2023-01-09T05:58:23.265Z,56.31
2023-01-09T06:00:50.310Z,57.26
2023-01-09T06:03:17.287Z,58.86
2023-01-09T06:05:44.743Z,60.26
2023-01-09T06:08:11.789Z,61.11
2023-01-09T06:10:38.902Z,65.33
2023-01-09T06:13:06.064Z,71.38
2023-01-09T06:15:33.084Z,69.94
2023-01-09T06:18:00.064Z,67.01
2023-01-09T06:20:27.496Z,64.35
2023-01-09T06:22:54.424Z,62.74
2023-01-09T06:25:21.402Z,61.64
2023-01-09T06:27:49.586Z,60.51
2023-01-09T06:30:18.748Z,57.27
2023-01-09T06:32:49.250Z,55.25
2023-01-09T06:35:21.129Z,56.33
2023-01-09T06:37:51.495Z,58.70
2023-01-09T06:40:21.888Z,61.02
2023-01-09T06:42:50.486Z,65.00
2023-01-09T06:45:18.102Z,69.23
2023-01-09T06:47:45.471Z,67.77
2023-01-09T06:50:12.968Z,65.49
2023-01-09T06:52:40.404Z,63.76
2023-01-09T06:55:08.783Z,62.60
2023-01-09T06:57:35.732Z,61.10
2023-01-09T07:00:04.138Z,57.95
2023-01-09T07:02:31.043Z,56.29
2023-01-09T07:04:57.910Z,57.52
2023-01-09T07:07:24.850Z,59.18
2023-01-09T07:09:52.391Z,60.10
2023-01-09T07:12:19.347Z,63.60
2023-01-09T07:14:46.456Z,69.18
2023-01-09T07:17:14.001Z,68.11
2023-01-09T07:19:41.251Z,66.38
2023-01-09T07:22:08.872Z,65.02
2023-01-09T07:24:35.809Z,63.60
2023-01-09T07:27:03.198Z,62.60
2023-01-09T07:29:30.892Z,62.19
2023-01-09T07:31:58.000Z,62.34
2023-01-09T07:34:24.848Z,61.87
2023-01-09T07:36:52.141Z,60.93
2023-01-09T07:39:19.008Z,60.19
2023-01-09T07:41:46.479Z,57.89
2023-01-09T07:44:14.717Z,55.78
2023-01-09T07:46:42.287Z,56.47
2023-01-09T07:49:10.059Z,58.15
2023-01-09T07:51:39.726Z,60.26
2023-01-09T07:54:07.489Z,66.05
2023-01-09T07:56:34.767Z,70.06
2023-01-09T07:59:02.063Z,68.92
2023-01-09T08:01:29.761Z,66.99
2023-01-09T08:03:57.328Z,65.26
2023-01-09T08:06:24.527Z,63.84
2023-01-09T08:08:51.734Z,62.90
2023-01-09T08:11:18.703Z,62.00
2023-01-09T08:13:45.572Z,61.23
2023-01-09T08:16:12.587Z,60.22
2023-01-09T08:18:39.575Z,57.48
2023-01-09T08:21:07.241Z,55.55
2023-01-09T08:23:34.653Z,56.40
2023-01-09T08:26:01.711Z,59.37
2023-01-09T08:28:29.093Z,60.99
2023-01-09T08:30:56.397Z,65.33
2023-01-09T08:33:23.609Z,69.44
2023-01-09T08:35:50.567Z,68.10
2023-01-09T08:38:17.792Z,66.12
2023-01-09T08:40:47.429Z,64.46
2023-01-09T08:43:33.587Z,63.28
2023-01-09T08:46:20.316Z,61.98
2023-01-09T08:48:50.486Z,61.11
2023-01-09T08:51:17.433Z,60.42
2023-01-09T08:53:44.457Z,60.07
2023-01-09T08:56:11.350Z,59.71
2023-01-09T08:58:38.303Z,56.79
2023-01-09T09:01:07.132Z,55.05
2023-01-09T09:03:34.069Z,55.93
2023-01-09T09:06:01.097Z,57.34
2023-01-09T09:08:28.005Z,59.13
2023-01-09T09:10:54.949Z,60.35
2023-01-09T09:13:21.805Z,64.60
2023-01-09T09:15:48.841Z,70.24
2023-01-09T09:18:15.967Z,68.73
2023-01-09T09:20:43.300Z,65.80
2023-01-09T09:23:10.857Z,63.61
2023-01-09T09:25:38.940Z,62.39
2023-01-09T09:28:07.022Z,60.91
2023-01-09T09:30:34.645Z,60.58
2023-01-09T09:33:05.118Z,59.85
2023-01-09T09:35:34.213Z,57.31
2023-01-09T09:38:05.336Z,55.63
2023-01-09T09:40:52.048Z,56.38
2023-01-09T09:44:06.367Z,57.97
2023-01-09T09:47:12.420Z,59.16
2023-01-09T09:50:14.852Z,65.78
2023-01-09T09:53:10.821Z,68.59
2023-01-09T09:55:40.645Z,65.97
2023-01-09T09:58:38.807Z,63.82
2023-01-09T10:01:08.408Z,62.38
2023-01-09T10:03:49.834Z,60.89
2023-01-09T10:07:10.142Z,57.66
2023-01-09T10:09:59.248Z,56.93
2023-01-09T10:12:45.649Z,58.40
2023-01-09T10:15:30.510Z,59.98
2023-01-09T10:18:27.074Z,64.25
2023-01-09T10:21:02.396Z,67.80
2023-01-09T10:23:51.134Z,66.14
2023-01-09T10:26:30.004Z,64.64
2023-01-09T10:29:22.461Z,62.63
2023-01-09T10:31:53.412Z,61.46
2023-01-09T10:34:39.620Z,60.18
2023-01-09T10:37:06.725Z,60.19
2023-01-09T10:39:48.477Z,56.92
2023-01-09T10:42:53.624Z,54.88
2023-01-09T10:45:20.641Z,55.81
2023-01-09T10:47:49.978Z,57.56
2023-01-09T10:50:23.490Z,58.64
2023-01-09T10:52:53.742Z,59.89
2023-01-09T10:56:00.032Z,64.07
2023-01-09T10:58:27.731Z,69.96
2023-01-09T11:00:57.287Z,67.40
2023-01-09T11:03:28.596Z,65.22
2023-01-09T11:05:58.802Z,63.73
2023-01-09T11:08:42.373Z,62.45
2023-01-09T11:11:11.333Z,61.48
2023-01-09T11:13:43.915Z,60.88
2023-01-09T11:16:10.989Z,60.25
2023-01-09T11:18:50.050Z,59.74
2023-01-09T11:21:38.565Z,57.47
2023-01-09T11:24:25.909Z,57.55
2023-01-09T11:27:12.898Z,58.25
2023-01-09T11:29:44.208Z,64.31
2023-01-09T11:32:23.738Z,66.72
2023-01-09T11:34:50.849Z,65.83
2023-01-09T11:37:29.991Z,64.10
2023-01-09T11:39:59.175Z,63.17
2023-01-09T11:42:47.730Z,62.39
2023-01-09T11:45:23.894Z,61.80
2023-01-09T11:47:51.248Z,61.58
2023-01-09T11:50:24.419Z,61.13
2023-01-09T11:53:15.610Z,60.48
2023-01-09T11:55:43.510Z,57.43
2023-01-09T11:58:17.736Z,56.74
2023-01-09T12:01:03.172Z,58.40
2023-01-09T12:03:49.171Z,60.32
2023-01-09T12:06:26.689Z,64.86
2023-01-09T12:09:05.580Z,68.40
2023-01-09T12:12:02.107Z,65.98
2023-01-09T12:14:31.915Z,64.60
2023-01-09T12:17:07.869Z,62.83
2023-01-09T12:20:03.502Z,62.63
2023-01-09T12:22:57.809Z,61.73
2023-01-09T12:25:35.282Z,61.57
2023-01-09T12:28:33.838Z,61.80
2023-01-09T12:31:22.859Z,60.90
2023-01-09T12:34:08.996Z,60.24
2023-01-09T12:36:54.213Z,57.34
2023-01-09T12:39:47.648Z,56.95
2023-01-09T12:42:44.259Z,58.15
2023-01-09T12:45:32.490Z,62.85
2023-01-09T12:48:17.879Z,66.61
2023-01-09T12:51:10.098Z,65.62
2023-01-09T12:53:56.293Z,64.03
2023-01-09T12:56:32.788Z,62.78
2023-01-09T12:59:32.624Z,61.39
2023-01-09T13:02:24.431Z,61.43
2023-01-09T13:05:02.954Z,60.43
2023-01-09T13:07:41.034Z,59.99
2023-01-09T13:10:24.255Z,59.98
2023-01-09T13:12:53.477Z,59.88
2023-01-09T13:15:28.212Z,58.36
2023-01-09T13:18:22.211Z,56.93
2023-01-09T13:20:57.365Z,59.06
2023-01-09T13:23:27.569Z,63.05
2023-01-09T13:26:02.367Z,66.69
2023-01-09T13:28:36.767Z,66.37
2023-01-09T13:31:43.623Z,64.74
2023-01-09T13:34:21.748Z,63.27
2023-01-09T13:36:56.008Z,62.47
2023-01-09T13:39:24.885Z,61.46
2023-01-09T13:42:24.070Z,61.21
2023-01-09T13:44:57.119Z,60.98
2023-01-09T13:47:28.283Z,61.23
2023-01-09T13:50:02.479Z,60.84
2023-01-09T13:52:43.246Z,60.27
2023-01-09T13:55:15.412Z,57.84
2023-01-09T13:58:15.938Z,56.56
2023-01-09T14:00:48.832Z,57.36
2023-01-09T14:03:38.620Z,60.24
2023-01-09T14:06:16.943Z,64.33
2023-01-09T14:08:45.909Z,67.44
2023-01-09T14:11:20.495Z,66.74
2023-01-09T14:13:55.936Z,65.48
2023-01-09T14:16:25.712Z,64.15
2023-01-09T14:19:00.460Z,62.40
2023-01-09T14:21:44.459Z,61.51
2023-01-09T14:24:20.609Z,60.03
2023-01-09T14:26:50.269Z,57.49
2023-01-09T14:29:29.937Z,56.66
2023-01-09T14:32:21.973Z,57.69
2023-01-09T14:34:54.844Z,59.22
2023-01-09T14:37:22.734Z,64.23
2023-01-09T14:39:51.973Z,68.62
2023-01-09T14:42:25.105Z,67.18
2023-01-09T14:45:31.014Z,65.06
2023-01-09T14:48:06.296Z,63.57
2023-01-09T14:50:51.186Z,61.97
2023-01-09T14:53:34.688Z,61.17
2023-01-09T14:56:06.891Z,60.23
2023-01-09T14:58:37.826Z,57.18
2023-01-09T15:01:10.993Z,55.84
2023-01-09T15:03:41.203Z,56.56
2023-01-09T15:06:20.613Z,57.78
2023-01-09T15:08:56.897Z,58.95
2023-01-09T15:11:24.864Z,63.97
2023-01-09T15:13:54.635Z,69.22
2023-01-09T15:16:25.106Z,67.17
2023-01-09T15:19:00.462Z,65.08
2023-01-09T15:21:33.418Z,63.33
2023-01-09T15:24:18.996Z,61.65
2023-01-09T15:26:53.026Z,60.78
2023-01-09T15:29:20.951Z,57.18
2023-01-09T15:32:13.212Z,55.58
2023-01-09T15:34:43.840Z,56.08
2023-01-09T15:37:28.766Z,58.92
2023-01-09T15:39:58.383Z,59.67
2023-01-09T15:42:47.770Z,65.33
2023-01-09T15:45:28.142Z,69.19
2023-01-09T15:48:14.334Z,66.87
2023-01-09T15:50:42.770Z,64.53
2023-01-09T15:53:18.731Z,62.50
2023-01-09T15:55:49.794Z,61.29
2023-01-09T15:58:30.469Z,60.47
2023-01-09T16:01:01.923Z,60.25
2023-01-09T16:03:29.825Z,56.71
2023-01-09T16:06:05.961Z,55.01
2023-01-09T16:08:43.001Z,55.97
2023-01-09T16:11:31.725Z,57.67
2023-01-09T16:14:25.488Z,58.42
2023-01-09T16:16:54.663Z,59.46
2023-01-09T16:19:52.849Z,64.23
2023-01-09T16:22:26.104Z,70.31
2023-01-09T16:24:55.270Z,68.21
2023-01-09T16:27:30.383Z,65.57
2023-01-09T16:30:03.008Z,63.44
2023-01-09T16:32:33.782Z,62.01
2023-01-09T16:35:07.998Z,60.76
2023-01-09T16:37:36.682Z,60.11
2023-01-09T16:40:18.832Z,57.47
2023-01-09T16:43:02.060Z,56.18
2023-01-09T16:45:33.811Z,57.41
2023-01-09T16:48:03.248Z,59.39
2023-01-09T16:50:30.663Z,60.73
2023-01-09T16:53:00.166Z,65.35
2023-01-09T16:55:27.331Z,69.13
2023-01-09T16:57:55.588Z,67.78
2023-01-09T17:00:22.905Z,65.26
2023-01-09T17:02:50.259Z,63.69
2023-01-09T17:05:17.242Z,62.48
2023-01-09T17:07:44.847Z,61.55
2023-01-09T17:10:23.255Z,60.74
2023-01-09T17:12:50.225Z,57.74
2023-01-09T17:15:17.569Z,56.76
2023-01-09T17:17:44.642Z,57.94
2023-01-09T17:20:17.536Z,59.05
2023-01-09T17:22:44.928Z,60.56
2023-01-09T17:25:36.050Z,64.68
2023-01-09T17:28:23.009Z,69.46
2023-01-09T17:30:50.150Z,67.35
2023-01-09T17:33:19.294Z,64.77
2023-01-09T17:35:46.683Z,63.19
2023-01-09T17:38:15.766Z,61.77
2023-01-09T17:40:44.164Z,60.74
2023-01-09T17:43:12.506Z,60.11
2023-01-09T17:45:43.987Z,57.38
2023-01-09T17:48:19.610Z,56.30
2023-01-09T17:50:48.178Z,57.81
2023-01-09T17:53:15.880Z,59.40
2023-01-09T17:55:42.870Z,60.94
2023-01-09T17:58:25.023Z,65.18
2023-01-09T18:00:52.369Z,69.01
2023-01-09T18:03:21.032Z,67.33
2023-01-09T18:05:48.203Z,65.26
2023-01-09T18:08:15.350Z,63.26
2023-01-09T18:10:44.317Z,61.67
2023-01-09T18:13:11.797Z,60.25
2023-01-09T18:15:43.115Z,56.96
2023-01-09T18:18:11.831Z,55.70
2023-01-09T18:20:43.443Z,57.03
2023-01-09T18:23:11.757Z,58.59
2023-01-09T18:25:43.447Z,59.98
2023-01-09T18:28:15.601Z,61.13
2023-01-09T18:30:47.791Z,65.55
2023-01-09T18:33:15.828Z,69.06
2023-01-09T18:35:43.675Z,67.13
2023-01-09T18:38:11.921Z,64.81
2023-01-09T18:40:39.277Z,62.99
2023-01-09T18:43:08.074Z,61.89
2023-01-09T18:45:38.669Z,61.00
2023-01-09T18:48:08.019Z,60.18
2023-01-09T18:50:35.286Z,57.49
2023-01-09T18:53:02.303Z,55.64
2023-01-09T18:55:29.555Z,56.56
2023-01-09T18:57:56.713Z,57.80
2023-01-09T19:00:24.233Z,59.11
2023-01-09T19:02:51.673Z,60.34
2023-01-09T19:05:18.712Z,64.09
2023-01-09T19:07:45.836Z,68.40
2023-01-09T19:10:13.289Z,66.86
2023-01-09T19:12:40.558Z,64.80
2023-01-09T19:15:11.775Z,62.69
2023-01-09T19:17:39.753Z,61.29
2023-01-09T19:20:08.489Z,60.13
2023-01-09T19:22:35.542Z,57.37
2023-01-09T19:25:02.707Z,56.13
2023-01-09T19:27:30.913Z,57.38
2023-01-09T19:29:58.119Z,58.85
2023-01-09T19:32:25.981Z,60.08
2023-01-09T19:34:53.232Z,61.43
2023-01-09T19:37:20.295Z,66.04
2023-01-09T19:39:47.485Z,69.97
2023-01-09T19:42:15.033Z,67.53
2023-01-09T19:44:42.233Z,64.63
2023-01-09T19:47:11.119Z,62.40
2023-01-09T19:49:38.804Z,60.99
2023-01-09T19:52:06.042Z,58.23
2023-01-09T19:54:33.516Z,56.04
2023-01-09T19:57:00.731Z,56.64
2023-01-09T19:59:28.233Z,57.73
2023-01-09T20:01:55.828Z,58.81
2023-01-09T20:04:23.788Z,59.99
2023-01-09T20:06:51.204Z,61.06
2023-01-09T20:09:27.737Z,65.93
2023-01-09T20:11:54.987Z,71.32
2023-01-09T20:14:23.202Z,68.37
2023-01-09T20:16:54.399Z,65.66
2023-01-09T20:19:21.855Z,63.82
2023-01-09T20:21:49.753Z,62.10
2023-01-09T20:24:17.487Z,61.06
2023-01-09T20:26:46.717Z,57.95
2023-01-09T20:29:14.590Z,55.90
2023-01-09T20:31:42.113Z,56.75
2023-01-09T20:34:12.595Z,58.03
2023-01-09T20:36:40.218Z,59.25
2023-01-09T20:39:08.633Z,60.48
2023-01-09T20:41:36.012Z,64.14
2023-01-09T20:44:07.619Z,68.75
2023-01-09T20:46:38.420Z,67.72
2023-01-09T20:49:08.074Z,64.95
2023-01-09T20:51:36.647Z,62.90
2023-01-09T20:54:04.342Z,61.26
2023-01-09T20:56:32.624Z,60.07
2023-01-09T20:59:00.647Z,57.00
2023-01-09T21:01:28.647Z,55.74
2023-01-09T21:03:57.218Z,56.62
2023-01-09T21:06:26.178Z,58.04
2023-01-09T21:08:53.579Z,59.24
2023-01-09T21:11:22.645Z,60.23
2023-01-09T21:13:51.210Z,61.03
2023-01-09T21:16:21.821Z,65.22
2023-01-09T21:18:49.263Z,69.57
2023-01-09T21:21:19.228Z,68.32
2023-01-09T21:23:48.149Z,65.93
2023-01-09T21:26:17.286Z,63.76
2023-01-09T21:28:49.672Z,62.40
2023-01-09T21:31:20.723Z,61.25
2023-01-09T21:33:48.906Z,60.58
2023-01-09T21:36:16.677Z,60.37
2023-01-09T21:38:44.126Z,56.79
2023-01-09T21:41:29.811Z,55.41
2023-01-09T21:44:15.354Z,55.98
2023-01-09T21:46:58.100Z,57.29
2023-01-09T21:49:27.443Z,58.62
2023-01-09T21:51:55.624Z,60.16
2023-01-09T21:54:24.242Z,63.95
2023-01-09T21:56:52.560Z,68.75
2023-01-09T21:59:20.205Z,67.86
2023-01-09T22:01:49.643Z,65.77
2023-01-09T22:04:19.329Z,63.75
2023-01-09T22:06:46.728Z,62.23
2023-01-09T22:09:14.206Z,61.17
2023-01-09T22:11:43.092Z,60.56
2023-01-09T22:14:15.536Z,58.23
2023-01-09T22:16:44.114Z,56.55
2023-01-09T22:19:12.738Z,57.29
2023-01-09T22:21:39.644Z,58.27
2023-01-09T22:24:07.335Z,59.43
2023-01-09T22:26:34.787Z,60.59
2023-01-09T22:29:01.738Z,64.74
2023-01-09T22:31:33.307Z,69.69
2023-01-09T22:34:02.758Z,68.53
2023-01-09T22:36:31.370Z,66.58
2023-01-09T22:39:00.489Z,64.88
2023-01-09T22:41:30.078Z,63.05
2023-01-09T22:43:57.416Z,62.01
2023-01-09T22:46:24.672Z,61.35
2023-01-09T22:48:52.092Z,60.74
2023-01-09T22:51:21.425Z,60.27
2023-01-09T22:53:49.206Z,57.88
2023-01-09T22:56:19.211Z,55.79
2023-01-09T22:58:52.003Z,56.43
2023-01-09T23:01:20.080Z,57.53
2023-01-09T23:04:12.031Z,58.76
2023-01-09T23:06:38.970Z,59.18
2023-01-09T23:09:06.342Z,61.06
2023-01-09T23:11:53.902Z,65.39
2023-01-09T23:14:22.398Z,73.00
2023-01-09T23:16:49.373Z,69.17
2023-01-09T23:19:16.372Z,66.55
2023-01-09T23:21:44.949Z,65.10
2023-01-09T23:24:14.242Z,63.60
2023-01-09T23:26:42.950Z,62.26
2023-01-09T23:29:11.339Z,61.20
2023-01-09T23:31:38.444Z,60.17
2023-01-09T23:34:08.561Z,57.19
2023-01-09T23:36:36.208Z,55.67
2023-01-09T23:39:04.650Z,56.65
2023-01-09T23:41:50.589Z,57.90
2023-01-09T23:44:17.634Z,58.73
2023-01-09T23:46:44.481Z,59.85
2023-01-09T23:49:12.131Z,61.19
2023-01-09T23:51:39.763Z,65.38
2023-01-09T23:54:09.085Z,70.75
2023-01-09T23:56:36.645Z,70.18
2023-01-09T23:59:07.653Z,67.89
